createdAt,value
2022-12-16T00:01:28.658Z,1.18
2022-12-16T00:03:58.530Z,1.06
2022-12-16T00:06:30.599Z,1.10
2022-12-16T00:08:59.541Z,0.95
2022-12-16T00:11:27.905Z,1.00
2022-12-16T00:13:55.698Z,0.78
2022-12-16T00:16:23.542Z,0.95
2022-12-16T00:18:51.747Z,0.63
2022-12-16T00:21:20.849Z,1.02
2022-12-16T00:23:48.826Z,1.12
2022-12-16T00:26:16.938Z,1.04
2022-12-16T00:28:44.643Z,1.23
2022-12-16T00:31:12.984Z,1.07
2022-12-16T00:33:40.925Z,1.11
2022-12-16T00:36:09.655Z,1.11
2022-12-16T00:38:38.002Z,1.21
2022-12-16T00:41:06.517Z,1.22
2022-12-16T00:43:34.613Z,0.92
2022-12-16T00:46:02.554Z,1.23
2022-12-16T00:48:30.387Z,1.26
2022-12-16T00:50:58.122Z,1.25
2022-12-16T00:53:25.882Z,1.28
2022-12-16T00:56:06.772Z,1.30
2022-12-16T00:58:35.010Z,1.42
2022-12-16T01:01:03.516Z,1.42
2022-12-16T01:03:31.506Z,1.33
2022-12-16T01:05:59.393Z,1.25
2022-12-16T01:08:27.757Z,1.37
2022-12-16T01:10:57.564Z,1.37
2022-12-16T01:13:27.133Z,1.28
2022-12-16T01:15:54.949Z,1.40
2022-12-16T01:18:22.698Z,1.22
2022-12-16T01:20:50.536Z,1.08
2022-12-16T01:23:18.428Z,0.88
2022-12-16T01:25:48.754Z,0.98
2022-12-16T01:28:16.552Z,1.16
2022-12-16T01:30:44.316Z,1.27
2022-12-16T01:33:12.997Z,1.30
2022-12-16T01:35:56.483Z,1.30
2022-12-16T01:38:24.356Z,1.33
2022-12-16T01:40:52.240Z,1.40
2022-12-16T01:43:29.139Z,1.47
2022-12-16T01:46:07.766Z,1.54
2022-12-16T01:49:01.003Z,1.50
2022-12-16T01:51:50.466Z,1.57
2022-12-16T01:54:28.957Z,1.53
2022-12-16T01:57:27.514Z,1.49
2022-12-16T01:59:56.507Z,1.49
2022-12-16T02:02:24.786Z,1.32
2022-12-16T02:05:11.438Z,1.48
2022-12-16T02:07:39.180Z,1.50
2022-12-16T02:10:08.032Z,1.56
2022-12-16T02:12:52.070Z,1.49
2022-12-16T02:15:44.301Z,1.09
2022-12-16T02:18:36.521Z,1.24
2022-12-16T02:21:19.398Z,1.08
2022-12-16T02:24:52.517Z,0.91
2022-12-16T02:28:03.093Z,0.84
2022-12-16T02:31:00.523Z,0.88
2022-12-16T02:33:28.194Z,1.18
2022-12-16T02:36:08.021Z,1.15
2022-12-16T02:39:12.283Z,1.06
2022-12-16T02:42:40.802Z,1.27
2022-12-16T02:45:27.085Z,1.46
2022-12-16T02:47:54.890Z,1.58
2022-12-16T02:50:45.718Z,1.61
2022-12-16T02:53:13.685Z,1.49
2022-12-16T02:56:33.923Z,1.29
2022-12-16T02:59:18.806Z,1.42
2022-12-16T03:02:15.932Z,1.47
2022-12-16T03:04:59.965Z,1.40
2022-12-16T03:07:32.108Z,1.51
2022-12-16T03:10:01.636Z,1.52
2022-12-16T03:12:29.385Z,1.63
2022-12-16T03:14:57.180Z,1.72
2022-12-16T03:17:27.740Z,1.63
2022-12-16T03:20:07.216Z,1.52
2022-12-16T03:22:38.783Z,1.61
2022-12-16T03:25:07.738Z,1.58
2022-12-16T03:27:40.949Z,1.62
2022-12-16T03:30:19.820Z,1.66
2022-12-16T03:33:03.420Z,1.50
2022-12-16T03:35:48.171Z,1.36
2022-12-16T03:38:16.504Z,1.11
2022-12-16T03:40:45.162Z,1.11
2022-12-16T03:43:16.959Z,0.87
2022-12-16T03:45:46.317Z,0.91
2022-12-16T03:48:15.585Z,0.98
2022-12-16T03:50:43.385Z,1.02
2022-12-16T03:53:11.216Z,1.22
2022-12-16T03:55:38.930Z,1.36
2022-12-16T03:58:07.361Z,1.46
2022-12-16T04:00:35.129Z,1.50
2022-12-16T04:03:03.025Z,1.45
2022-12-16T04:05:31.456Z,1.47
2022-12-16T04:08:02.201Z,1.45
2022-12-16T04:10:49.835Z,1.55
2022-12-16T04:13:37.794Z,1.58
2022-12-16T04:16:44.108Z,1.54
2022-12-16T04:19:44.385Z,1.53
2022-12-16T04:22:44.173Z,1.51
2022-12-16T04:25:22.878Z,1.64
2022-12-16T04:27:50.629Z,1.59
2022-12-16T04:30:20.548Z,1.74
2022-12-16T04:33:21.298Z,1.66
2022-12-16T04:36:07.790Z,1.76
2022-12-16T04:38:54.043Z,1.78
2022-12-16T04:41:40.713Z,1.84
2022-12-16T04:44:27.560Z,1.80
2022-12-16T04:47:14.248Z,1.77
2022-12-16T04:50:00.796Z,1.83
2022-12-16T04:52:47.553Z,1.72
2022-12-16T04:55:33.848Z,1.58
2022-12-16T04:58:21.640Z,1.41
2022-12-16T05:01:09.022Z,1.51
2022-12-16T05:03:55.619Z,1.38
2022-12-16T05:06:42.246Z,1.53
2022-12-16T05:09:28.305Z,1.21
2022-12-16T05:12:14.782Z,1.48
2022-12-16T05:15:00.968Z,1.61
2022-12-16T05:17:47.652Z,1.70
2022-12-16T05:20:34.194Z,1.47
2022-12-16T05:23:20.731Z,1.59
2022-12-16T05:26:07.364Z,1.54
2022-12-16T05:28:53.806Z,1.65
2022-12-16T05:31:39.884Z,1.63
2022-12-16T05:34:27.786Z,1.55
2022-12-16T05:37:14.315Z,1.39
2022-12-16T05:40:00.857Z,1.50
2022-12-16T05:42:47.534Z,1.40
2022-12-16T05:45:34.031Z,1.39
2022-12-16T05:48:20.269Z,1.23
2022-12-16T05:51:06.797Z,1.20
2022-12-16T05:53:53.272Z,1.07
2022-12-16T05:56:39.701Z,1.28
2022-12-16T05:59:26.210Z,1.21
2022-12-16T06:02:12.507Z,1.34
2022-12-16T06:04:59.574Z,1.25
2022-12-16T06:07:46.223Z,1.26
2022-12-16T06:10:32.793Z,1.12
2022-12-16T06:13:19.334Z,0.89
2022-12-16T06:16:08.862Z,0.89
2022-12-16T06:18:55.113Z,0.94
2022-12-16T06:21:41.602Z,1.21
2022-12-16T06:24:28.341Z,0.77
2022-12-16T06:27:14.904Z,0.82
2022-12-16T06:30:01.510Z,0.96
2022-12-16T06:32:47.958Z,0.54
2022-12-16T06:35:34.189Z,0.49
2022-12-16T06:38:20.734Z,0.47
2022-12-16T06:41:07.331Z,0.16
2022-12-16T06:43:53.881Z,0.37
2022-12-16T06:46:40.560Z,0.28
2022-12-16T06:49:26.645Z,0.28
2022-12-16T06:52:13.110Z,0.39
2022-12-16T06:55:00.003Z,0.27
2022-12-16T06:57:46.957Z,0.32
2022-12-16T07:00:33.567Z,0.15
2022-12-16T07:03:20.703Z,0.24
2022-12-16T07:06:12.493Z,0.27
2022-12-16T07:08:59.199Z,0.38
2022-12-16T07:11:45.650Z,0.16
2022-12-16T07:14:32.248Z,0.12
2022-12-16T07:17:18.824Z,0.35
2022-12-16T07:20:05.429Z,0.38
2022-12-16T07:23:01.121Z,0.57
2022-12-16T07:25:50.788Z,0.50
2022-12-16T07:28:36.933Z,0.29
2022-12-16T07:31:23.711Z,-0.01
2022-12-16T07:34:10.303Z,0.02
2022-12-16T07:36:56.672Z,-0.05
2022-12-16T07:39:43.225Z,0.08
2022-12-16T07:42:29.899Z,0.41
2022-12-16T07:45:16.586Z,0.18
2022-12-16T07:48:08.563Z,0.36
2022-12-16T07:50:56.680Z,0.42
2022-12-16T07:53:43.518Z,0.33
2022-12-16T07:56:30.729Z,0.53
2022-12-16T07:59:17.333Z,0.58
2022-12-16T08:02:03.643Z,0.75
2022-12-16T08:04:50.215Z,0.71
2022-12-16T08:07:37.676Z,0.60
2022-12-16T08:10:24.374Z,0.29
2022-12-16T08:13:10.412Z,-0.33
2022-12-16T08:15:56.596Z,0.11
2022-12-16T08:18:43.214Z,0.24
2022-12-16T08:21:29.665Z,0.23
2022-12-16T08:24:16.220Z,0.40
2022-12-16T08:27:02.801Z,-0.11
2022-12-16T08:29:49.039Z,0.16
2022-12-16T08:32:35.573Z,0.30
2022-12-16T08:35:22.279Z,0.39
2022-12-16T08:38:13.700Z,0.42
2022-12-16T08:41:02.807Z,0.29
2022-12-16T08:43:54.349Z,0.22
2022-12-16T08:46:41.626Z,0.08
2022-12-16T08:49:28.312Z,0.18
2022-12-16T08:52:14.862Z,0.30
2022-12-16T08:55:01.316Z,0.37
2022-12-16T08:57:47.970Z,0.02
2022-12-16T09:00:35.620Z,0.38
2022-12-16T09:03:22.248Z,0.27
2022-12-16T09:06:08.736Z,-0.06
2022-12-16T09:08:55.444Z,0.47
2022-12-16T09:11:42.135Z,0.58
2022-12-16T09:14:28.679Z,0.73
2022-12-16T09:17:15.181Z,0.42
2022-12-16T09:20:01.479Z,0.34
2022-12-16T09:22:48.087Z,0.73
2022-12-16T09:25:34.662Z,0.46
2022-12-16T09:28:21.340Z,0.39
2022-12-16T09:31:07.554Z,0.14
2022-12-16T09:33:55.001Z,-0.07
2022-12-16T09:36:42.566Z,-0.06
2022-12-16T09:39:28.908Z,0.15
2022-12-16T09:42:35.389Z,0.22
2022-12-16T09:45:59.974Z,0.49
2022-12-16T09:49:04.760Z,0.46
2022-12-16T09:51:53.490Z,0.10
2022-12-16T09:54:45.226Z,0.42
2022-12-16T09:57:33.858Z,0.53
2022-12-16T10:00:31.141Z,0.78
2022-12-16T10:03:18.998Z,0.54
2022-12-16T10:06:27.063Z,0.76
2022-12-16T10:09:38.706Z,0.76
2022-12-16T10:12:54.690Z,0.84
2022-12-16T10:16:15.421Z,0.64
2022-12-16T10:19:10.057Z,0.61
2022-12-16T10:22:25.740Z,0.93
2022-12-16T10:25:41.066Z,0.58
2022-12-16T10:28:37.879Z,0.70
2022-12-16T10:31:34.566Z,0.79
2022-12-16T10:34:21.703Z,1.06
2022-12-16T10:37:14.124Z,0.93
2022-12-16T10:40:07.657Z,0.81
2022-12-16T10:43:31.172Z,0.91
2022-12-16T10:46:18.921Z,1.25
2022-12-16T10:49:05.662Z,0.84
2022-12-16T10:51:51.924Z,1.17
2022-12-16T10:54:39.040Z,1.27
2022-12-16T10:57:42.551Z,0.81
2022-12-16T11:01:08.852Z,1.29
2022-12-16T11:03:58.605Z,1.32
2022-12-16T11:06:53.748Z,1.06
2022-12-16T11:09:43.985Z,0.72
2022-12-16T11:12:50.314Z,1.23
2022-12-16T11:15:48.566Z,0.96
2022-12-16T11:18:41.007Z,1.31
2022-12-16T11:21:40.880Z,1.51
2022-12-16T11:24:36.475Z,1.62
2022-12-16T11:27:32.915Z,1.18
2022-12-16T11:30:41.309Z,1.36
2022-12-16T11:33:38.390Z,1.46
2022-12-16T11:36:51.112Z,0.58
2022-12-16T11:39:41.590Z,0.58
2022-12-16T11:42:38.876Z,0.73
2022-12-16T11:45:32.520Z,1.07
2022-12-16T11:48:48.527Z,1.10
2022-12-16T11:51:35.848Z,0.69
2022-12-16T11:54:49.513Z,0.91
2022-12-16T11:58:04.637Z,1.13
2022-12-16T12:00:56.381Z,1.23
2022-12-16T12:03:45.529Z,1.30
2022-12-16T12:06:34.705Z,1.22
2022-12-16T12:09:31.458Z,0.67
2022-12-16T12:12:48.743Z,0.50
2022-12-16T12:16:04.601Z,0.77
2022-12-16T12:19:19.542Z,0.95
2022-12-16T12:22:23.298Z,1.03
2022-12-16T12:25:22.514Z,1.28
2022-12-16T12:28:27.930Z,1.30
2022-12-16T12:31:36.740Z,0.94
2022-12-16T12:34:37.843Z,1.05
2022-12-16T12:37:43.199Z,1.06
2022-12-16T12:40:46.441Z,1.48
2022-12-16T12:44:22.216Z,1.55
2022-12-16T12:47:18.140Z,1.43
2022-12-16T12:50:36.150Z,1.11
2022-12-16T12:53:43.995Z,1.30
2022-12-16T12:57:09.793Z,1.18
2022-12-16T13:00:19.721Z,1.11
2022-12-16T13:03:20.676Z,1.35
2022-12-16T13:06:08.367Z,1.40
2022-12-16T13:09:16.749Z,1.38
2022-12-16T13:12:25.014Z,1.37
2022-12-16T13:16:02.649Z,1.32
2022-12-16T13:18:51.146Z,0.70
2022-12-16T13:22:07.692Z,0.48
2022-12-16T13:25:09.469Z,0.99
2022-12-16T13:28:42.372Z,1.30
2022-12-16T13:31:28.975Z,1.14
2022-12-16T13:34:35.303Z,1.50
2022-12-16T13:37:30.980Z,1.66
2022-12-16T13:40:38.337Z,1.64
2022-12-16T13:43:56.320Z,1.45
2022-12-16T13:47:05.216Z,1.14
2022-12-16T13:50:10.825Z,1.40
2022-12-16T13:53:16.303Z,1.37
2022-12-16T13:56:19.342Z,1.09
2022-12-16T13:59:18.415Z,1.42
2022-12-16T14:02:41.605Z,1.23
2022-12-16T14:05:54.819Z,0.72
2022-12-16T14:08:50.133Z,0.70
2022-12-16T14:12:10.730Z,1.22
2022-12-16T14:15:14.568Z,1.21
2022-12-16T14:18:34.776Z,1.14
2022-12-16T14:21:24.327Z,1.13
2022-12-16T14:24:21.878Z,1.12
2022-12-16T14:27:09.371Z,1.40
2022-12-16T14:30:00.845Z,1.56
2022-12-16T14:32:53.433Z,1.59
2022-12-16T14:35:46.017Z,1.49
2022-12-16T14:38:45.722Z,1.28
2022-12-16T14:41:42.318Z,1.32
2022-12-16T14:44:40.075Z,1.48
2022-12-16T14:47:37.124Z,1.09
2022-12-16T14:50:40.909Z,1.29
2022-12-16T14:53:39.695Z,1.27
2022-12-16T14:56:41.034Z,1.24
2022-12-16T14:59:35.763Z,1.20
2022-12-16T15:03:02.471Z,1.07
2022-12-16T15:05:53.938Z,0.83
2022-12-16T15:08:44.340Z,1.25
2022-12-16T15:11:36.980Z,1.20
2022-12-16T15:14:25.382Z,1.42
2022-12-16T15:17:13.005Z,0.98
2022-12-16T15:20:06.294Z,1.14
2022-12-16T15:22:54.374Z,1.16
2022-12-16T15:25:44.476Z,0.86
2022-12-16T15:29:01.798Z,1.07
2022-12-16T15:32:01.395Z,0.85
2022-12-16T15:35:06.024Z,0.87
2022-12-16T15:38:04.164Z,1.01
2022-12-16T15:40:52.798Z,1.01
2022-12-16T15:43:52.591Z,0.74
2022-12-16T15:46:47.423Z,0.80
2022-12-16T15:50:04.701Z,0.95
2022-12-16T15:53:02.982Z,1.09
2022-12-16T15:55:50.872Z,0.59
2022-12-16T15:58:49.820Z,0.88
2022-12-16T16:01:44.080Z,0.44
2022-12-16T16:04:49.247Z,0.32
2022-12-16T16:07:38.108Z,-0.40
2022-12-16T16:10:38.747Z,-0.20
2022-12-16T16:13:25.618Z,0.03
2022-12-16T16:16:12.884Z,0.49
2022-12-16T16:19:00.671Z,0.34
2022-12-16T16:21:48.781Z,0.17
2022-12-16T16:24:35.831Z,0.29
2022-12-16T16:27:27.818Z,0.31
2022-12-16T16:30:13.827Z,0.43
2022-12-16T16:33:00.424Z,0.48
2022-12-16T16:35:47.908Z,0.64
2022-12-16T16:38:33.947Z,0.61
2022-12-16T16:41:20.697Z,0.53
2022-12-16T16:44:07.190Z,0.52
2022-12-16T16:47:00.309Z,0.42
2022-12-16T16:49:51.906Z,0.35
2022-12-16T16:52:41.877Z,0.18
2022-12-16T16:55:41.086Z,0.46
2022-12-16T16:58:43.952Z,0.56
2022-12-16T17:01:36.198Z,0.42
2022-12-16T17:04:22.971Z,0.57
2022-12-16T17:07:09.410Z,0.37
2022-12-16T17:09:56.275Z,0.18
2022-12-16T17:12:47.243Z,0.23
2022-12-16T17:15:45.194Z,0.30
2022-12-16T17:18:31.733Z,0.12
2022-12-16T17:21:18.285Z,-0.01
2022-12-16T17:24:04.910Z,0.24
2022-12-16T17:26:51.535Z,0.24
2022-12-16T17:29:42.416Z,0.34
2022-12-16T17:32:30.199Z,0.45
2022-12-16T17:35:17.169Z,0.58
2022-12-16T17:38:03.282Z,0.35
2022-12-16T17:40:49.518Z,0.36
2022-12-16T17:43:36.301Z,0.39
2022-12-16T17:46:26.439Z,0.63
2022-12-16T17:49:14.993Z,0.57
2022-12-16T17:52:02.516Z,0.70
2022-12-16T17:54:49.336Z,0.42
2022-12-16T17:57:35.997Z,0.27
2022-12-16T18:00:23.141Z,0.25
2022-12-16T18:03:09.923Z,0.24
2022-12-16T18:05:57.198Z,0.07
2022-12-16T18:08:43.834Z,0.02
2022-12-16T18:11:33.481Z,-0.17
2022-12-16T18:14:22.573Z,-0.49
2022-12-16T18:17:09.154Z,-0.21
2022-12-16T18:19:55.446Z,-0.10
2022-12-16T18:22:41.841Z,0.31
2022-12-16T18:25:28.405Z,0.16
2022-12-16T18:28:14.817Z,0.06
2022-12-16T18:31:01.376Z,-0.38
2022-12-16T18:33:48.044Z,-0.28
2022-12-16T18:36:34.556Z,-0.13
2022-12-16T18:39:21.335Z,-0.13
2022-12-16T18:42:07.401Z,0.08
2022-12-16T18:45:00.621Z,0.25
2022-12-16T18:47:47.997Z,0.30
2022-12-16T18:50:38.027Z,0.41
2022-12-16T18:53:25.618Z,0.38
2022-12-16T18:56:24.745Z,-0.04
2022-12-16T18:59:11.721Z,0.55
2022-12-16T19:01:58.991Z,0.42
2022-12-16T19:04:45.542Z,0.02
2022-12-16T19:07:33.790Z,-0.04
2022-12-16T19:10:21.260Z,0.08
2022-12-16T19:13:07.841Z,0.23
2022-12-16T19:15:54.368Z,0.21
2022-12-16T19:18:40.948Z,0.32
2022-12-16T19:21:28.676Z,0.40
2022-12-16T19:24:14.986Z,0.53
2022-12-16T19:27:01.666Z,0.06
2022-12-16T19:29:48.091Z,-0.52
2022-12-16T19:32:34.330Z,-0.36
2022-12-16T19:35:20.441Z,-0.15
2022-12-16T19:38:07.142Z,-0.15
2022-12-16T19:40:53.857Z,0.13
2022-12-16T19:43:40.648Z,-0.02
2022-12-16T19:46:27.342Z,0.29
2022-12-16T19:49:13.926Z,0.03
2022-12-16T19:51:59.984Z,-0.26
2022-12-16T19:54:46.367Z,0.17
2022-12-16T19:57:32.972Z,0.18
2022-12-16T20:00:19.222Z,0.01
2022-12-16T20:03:07.384Z,0.23
2022-12-16T20:05:53.617Z,0.09
2022-12-16T20:08:42.685Z,-0.25
2022-12-16T20:11:29.470Z,-0.10
2022-12-16T20:14:16.067Z,-0.15
2022-12-16T20:17:02.703Z,-0.20
2022-12-16T20:19:48.719Z,-0.11
2022-12-16T20:22:34.868Z,-0.14
2022-12-16T20:25:21.263Z,-0.02
2022-12-16T20:28:07.628Z,-0.06
2022-12-16T20:30:53.873Z,0.11
2022-12-16T20:33:43.419Z,-0.14
2022-12-16T20:36:30.090Z,-0.02
2022-12-16T20:39:16.660Z,-0.05
2022-12-16T20:42:03.199Z,-0.14
2022-12-16T20:44:49.756Z,-0.36
2022-12-16T20:47:36.433Z,-0.17
2022-12-16T20:50:23.002Z,0.14
2022-12-16T20:53:09.684Z,-0.03
2022-12-16T20:59:02.391Z,0.33
2022-12-16T21:04:55.296Z,0.10
2022-12-16T21:07:41.894Z,0.30
2022-12-16T21:10:28.291Z,0.19
2022-12-16T21:13:14.978Z,0.36
2022-12-16T21:16:01.544Z,0.37
2022-12-16T21:18:47.522Z,0.34
2022-12-16T21:21:33.626Z,0.43
2022-12-16T21:24:20.112Z,0.45
2022-12-16T21:27:06.713Z,0.52
2022-12-16T21:29:53.224Z,0.18
2022-12-16T21:32:44.491Z,-0.07
2022-12-16T21:35:30.894Z,0.02
2022-12-16T21:38:18.188Z,0.15
2022-12-16T21:41:11.077Z,0.01
2022-12-16T21:43:57.680Z,0.11
2022-12-16T21:46:44.184Z,0.17
2022-12-16T21:49:30.770Z,0.26
2022-12-16T21:52:17.481Z,0.10
2022-12-16T21:55:03.910Z,-0.23
2022-12-16T21:57:50.377Z,0.04
2022-12-16T22:00:37.078Z,-0.02
2022-12-16T22:03:23.578Z,-0.03
2022-12-16T22:06:10.034Z,-0.20
2022-12-16T22:08:56.698Z,-0.10
2022-12-16T22:11:43.232Z,0.10
2022-12-16T22:14:29.478Z,0.17
2022-12-16T22:17:16.076Z,0.08
2022-12-16T22:20:02.524Z,-0.50
2022-12-16T22:22:49.195Z,-0.52
2022-12-16T22:25:35.895Z,-0.71
2022-12-16T22:28:22.452Z,-0.40
2022-12-16T22:31:16.468Z,-0.40
2022-12-16T22:34:06.714Z,-0.47
2022-12-16T22:36:53.442Z,-0.41
2022-12-16T22:42:49.790Z,-0.28
2022-12-16T22:45:36.344Z,-0.20
2022-12-16T22:48:22.664Z,-0.14
2022-12-16T22:51:09.388Z,-0.12
2022-12-16T22:53:56.136Z,-0.13
2022-12-16T22:56:42.982Z,-0.20
2022-12-16T22:59:29.524Z,-0.38
2022-12-16T23:02:16.101Z,-0.38
2022-12-16T23:05:02.676Z,-0.49
2022-12-16T23:07:49.358Z,-0.69
2022-12-16T23:10:35.665Z,-0.58
2022-12-16T23:13:21.904Z,-0.65
2022-12-16T23:16:08.427Z,-0.63
2022-12-16T23:18:56.642Z,-0.70
2022-12-16T23:21:43.278Z,-0.75
2022-12-16T23:24:30.363Z,-0.68
2022-12-16T23:27:16.777Z,-0.60
2022-12-16T23:30:03.265Z,-0.69
2022-12-16T23:32:49.874Z,-0.63
2022-12-16T23:35:36.221Z,-0.62
2022-12-16T23:38:25.633Z,-0.62
2022-12-16T23:41:18.350Z,-0.60
2022-12-16T23:44:04.844Z,-0.64
2022-12-16T23:46:51.561Z,-0.66
2022-12-16T23:49:40.065Z,-0.69
2022-12-16T23:52:26.363Z,-0.73
2022-12-16T23:55:12.973Z,-0.80
2022-12-16T23:57:59.653Z,-0.84
